sensor_id;sensor_type;location;lat;lon;timestamp;pressure;altitude;pressure_sealevel;temperature;humidity
23616;BME280;11985;49.404;7.734;2023-02-28T00:04:30;98058.75;;;-2.38;67.79
23616;BME280;11985;49.404;7.734;2023-02-28T00:09:33;98054.00;;;-2.44;68.45
23616;BME280;11985;49.404;7.734;2023-02-28T00:14:34;98054.75;;;-2.55;68.55
23616;BME280;11985;49.404;7.734;2023-02-28T00:19:36;98052.88;;;-2.66;68.77
23616;BME280;11985;49.404;7.734;2023-02-28T00:24:39;98055.88;;;-2.72;69.47
23616;BME280;11985;49.404;7.734;2023-02-28T00:29:40;98047.00;;;-2.80;70.24
23616;BME280;11985;49.404;7.734;2023-02-28T00:34:42;98045.66;;;-2.86;70.98
23616;BME280;11985;49.404;7.734;2023-02-28T00:39:45;98051.00;;;-2.89;70.86
23616;BME280;11985;49.404;7.734;2023-02-28T00:44:46;98052.34;;;-2.96;71.26
23616;BME280;11985;49.404;7.734;2023-02-28T00:49:48;98058.44;;;-2.97;71.79
23616;BME280;11985;49.404;7.734;2023-02-28T00:54:51;98052.66;;;-3.01;72.38
23616;BME280;11985;49.404;7.734;2023-02-28T00:59:53;98053.59;;;-3.02;72.86
23616;BME280;11985;49.404;7.734;2023-02-28T01:04:55;98047.81;;;-3.05;72.74
23616;BME280;11985;49.404;7.734;2023-02-28T01:09:58;98048.31;;;-3.13;73.68
23616;BME280;11985;49.404;7.734;2023-02-28T01:14:59;98044.38;;;-3.19;74.23
23616;BME280;11985;49.404;7.734;2023-02-28T01:20:01;98048.09;;;-3.23;74.46
23616;BME280;11985;49.404;7.734;2023-02-28T01:25:06;98054.16;;;-3.24;75.12
23616;BME280;11985;49.404;7.734;2023-02-28T01:30:09;98054.38;;;-3.27;75.49
23616;BME280;11985;49.404;7.734;2023-02-28T01:35:11;98060.25;;;-3.25;76.58
23616;BME280;11985;49.404;7.734;2023-02-28T01:40:14;98048.81;;;-3.21;76.86
23616;BME280;11985;49.404;7.734;2023-02-28T01:45:22;98045.97;;;-3.16;77.00
23616;BME280;11985;49.404;7.734;2023-02-28T01:50:28;98044.19;;;-3.15;76.85
23616;BME280;11985;49.404;7.734;2023-02-28T01:55:32;98035.19;;;-3.23;77.34
23616;BME280;11985;49.404;7.734;2023-02-28T02:00:34;98036.84;;;-3.34;77.84
23616;BME280;11985;49.404;7.734;2023-02-28T02:05:37;98031.25;;;-3.41;78.45
23616;BME280;11985;49.404;7.734;2023-02-28T02:10:43;98041.56;;;-3.41;78.84
23616;BME280;11985;49.404;7.734;2023-02-28T02:15:52;98033.72;;;-3.39;79.22
23616;BME280;11985;49.404;7.734;2023-02-28T02:21:34;98022.59;;;-3.40;79.61
23616;BME280;11985;49.404;7.734;2023-02-28T02:27:10;98016.75;;;-3.42;79.63
23616;BME280;11985;49.404;7.734;2023-02-28T02:32:48;98012.72;;;-3.46;80.70
23616;BME280;11985;49.404;7.734;2023-02-28T02:38:00;98022.59;;;-3.53;80.86
23616;BME280;11985;49.404;7.734;2023-02-28T02:43:10;98024.75;;;-3.59;81.38
23616;BME280;11985;49.404;7.734;2023-02-28T02:48:17;98021.75;;;-3.66;82.15
23616;BME280;11985;49.404;7.734;2023-02-28T02:53:26;98037.56;;;-3.72;82.97
23616;BME280;11985;49.404;7.734;2023-02-28T02:58:32;98034.38;;;-3.76;83.50
23616;BME280;11985;49.404;7.734;2023-02-28T03:03:35;98025.38;;;-3.83;83.90
23616;BME280;11985;49.404;7.734;2023-02-28T03:08:38;98027.03;;;-3.82;84.63
23616;BME280;11985;49.404;7.734;2023-02-28T03:13:55;98030.00;;;-3.88;85.43
23616;BME280;11985;49.404;7.734;2023-02-28T03:19:24;98030.28;;;-3.92;85.53
23616;BME280;11985;49.404;7.734;2023-02-28T03:24:32;98025.53;;;-3.99;86.07
23616;BME280;11985;49.404;7.734;2023-02-28T03:29:39;98023.25;;;-4.03;86.46
23616;BME280;11985;49.404;7.734;2023-02-28T03:34:48;98028.16;;;-4.00;87.01
23616;BME280;11985;49.404;7.734;2023-02-28T03:39:56;98022.84;;;-3.97;87.43
23616;BME280;11985;49.404;7.734;2023-02-28T03:45:01;98021.31;;;-4.00;87.79
23616;BME280;11985;49.404;7.734;2023-02-28T03:50:07;98016.44;;;-4.04;87.63
23616;BME280;11985;49.404;7.734;2023-02-28T03:55:14;98011.69;;;-4.10;88.14
23616;BME280;11985;49.404;7.734;2023-02-28T04:00:20;98022.16;;;-4.13;88.59
23616;BME280;11985;49.404;7.734;2023-02-28T04:05:23;98015.38;;;-4.14;88.94
23616;BME280;11985;49.404;7.734;2023-02-28T04:10:26;98011.03;;;-4.14;89.27
23616;BME280;11985;49.404;7.734;2023-02-28T04:15:28;98007.66;;;-4.14;89.68
23616;BME280;11985;49.404;7.734;2023-02-28T04:20:29;98006.94;;;-4.16;90.06
23616;BME280;11985;49.404;7.734;2023-02-28T04:25:32;98011.53;;;-4.21;90.23
23616;BME280;11985;49.404;7.734;2023-02-28T04:30:33;98017.56;;;-4.22;90.89
23616;BME280;11985;49.404;7.734;2023-02-28T04:35:35;98013.56;;;-4.27;91.04
23616;BME280;11985;49.404;7.734;2023-02-28T04:40:38;98013.63;;;-4.28;91.43
23616;BME280;11985;49.404;7.734;2023-02-28T04:45:39;98014.47;;;-4.28;91.79
23616;BME280;11985;49.404;7.734;2023-02-28T04:50:41;98011.00;;;-4.27;92.16
23616;BME280;11985;49.404;7.734;2023-02-28T04:55:44;98006.94;;;-4.16;92.12
23616;BME280;11985;49.404;7.734;2023-02-28T05:00:46;98021.59;;;-4.04;92.14
23616;BME280;11985;49.404;7.734;2023-02-28T05:05:47;98008.63;;;-4.03;91.47
23616;BME280;11985;49.404;7.734;2023-02-28T05:10:50;98012.72;;;-4.00;91.57
23616;BME280;11985;49.404;7.734;2023-02-28T05:15:52;98016.88;;;-3.97;91.41
23616;BME280;11985;49.404;7.734;2023-02-28T05:20:53;98019.16;;;-3.93;91.33
23616;BME280;11985;49.404;7.734;2023-02-28T05:25:56;98027.22;;;-3.85;91.39
23616;BME280;11985;49.404;7.734;2023-02-28T05:30:58;98033.00;;;-3.81;91.12
23616;BME280;11985;49.404;7.734;2023-02-28T05:35:59;98034.94;;;-3.85;90.90
23616;BME280;11985;49.404;7.734;2023-02-28T05:41:06;98037.34;;;-3.82;90.98
23616;BME280;11985;49.404;7.734;2023-02-28T05:46:10;98036.28;;;-3.79;90.93
23616;BME280;11985;49.404;7.734;2023-02-28T05:51:12;98040.13;;;-3.99;91.13
23616;BME280;11985;49.404;7.734;2023-02-28T05:56:15;98034.47;;;-4.04;91.61
23616;BME280;11985;49.404;7.734;2023-02-28T06:01:22;98040.13;;;-3.99;92.08
23616;BME280;11985;49.404;7.734;2023-02-28T06:06:24;98041.78;;;-3.98;92.12
23616;BME280;11985;49.404;7.734;2023-02-28T06:11:27;98042.63;;;-3.97;92.25
23616;BME280;11985;49.404;7.734;2023-02-28T06:16:31;98053.72;;;-3.97;92.11
23616;BME280;11985;49.404;7.734;2023-02-28T06:21:33;98042.66;;;-3.85;92.75
23616;BME280;11985;49.404;7.734;2023-02-28T06:26:36;98051.78;;;-3.66;92.46
23616;BME280;11985;49.404;7.734;2023-02-28T06:31:37;98063.97;;;-3.56;91.85
23616;BME280;11985;49.404;7.734;2023-02-28T06:36:40;98056.56;;;-3.60;91.67
23616;BME280;11985;49.404;7.734;2023-02-28T06:41:43;98058.78;;;-3.68;91.41
23616;BME280;11985;49.404;7.734;2023-02-28T06:46:46;98071.50;;;-3.80;92.08
23616;BME280;11985;49.404;7.734;2023-02-28T06:51:48;98076.66;;;-3.80;92.17
23616;BME280;11985;49.404;7.734;2023-02-28T06:56:51;98073.97;;;-3.78;92.34
23616;BME280;11985;49.404;7.734;2023-02-28T07:01:54;98065.78;;;-3.70;92.57
23616;BME280;11985;49.404;7.734;2023-02-28T07:06:56;98080.63;;;-3.61;92.41
23616;BME280;11985;49.404;7.734;2023-02-28T07:11:59;98079.78;;;-3.48;92.37
23616;BME280;11985;49.404;7.734;2023-02-28T07:17:01;98082.59;;;-3.38;91.50
23616;BME280;11985;49.404;7.734;2023-02-28T07:22:07;98090.19;;;-3.49;91.14
23616;BME280;11985;49.404;7.734;2023-02-28T07:27:10;98083.28;;;-3.49;91.37
23616;BME280;11985;49.404;7.734;2023-02-28T07:32:11;98095.47;;;-3.38;91.51
23616;BME280;11985;49.404;7.734;2023-02-28T07:37:13;98098.06;;;-3.25;91.10
23616;BME280;11985;49.404;7.734;2023-02-28T07:42:16;98099.97;;;-3.14;90.59
23616;BME280;11985;49.404;7.734;2023-02-28T07:47:18;98105.44;;;-3.06;89.87
23616;BME280;11985;49.404;7.734;2023-02-28T07:52:20;98096.56;;;-3.02;89.50
23616;BME280;11985;49.404;7.734;2023-02-28T07:57:24;98098.97;;;-2.86;89.47
23616;BME280;11985;49.404;7.734;2023-02-28T08:02:26;98094.22;;;-2.80;88.26
23616;BME280;11985;49.404;7.734;2023-02-28T08:07:28;98095.78;;;-2.52;88.59
23616;BME280;11985;49.404;7.734;2023-02-28T08:12:31;98101.88;;;-2.40;87.43
23616;BME280;11985;49.404;7.734;2023-02-28T08:17:32;98098.34;;;-2.39;86.05
23616;BME280;11985;49.404;7.734;2023-02-28T08:22:34;98106.50;;;-2.20;85.57
23616;BME280;11985;49.404;7.734;2023-02-28T08:27:37;98109.91;;;-2.19;84.88
23616;BME280;11985;49.404;7.734;2023-02-28T08:32:39;98098.91;;;-1.97;84.64
23616;BME280;11985;49.404;7.734;2023-02-28T08:37:41;98104.38;;;-1.89;83.11
23616;BME280;11985;49.404;7.734;2023-02-28T08:42:44;98098.31;;;-2.01;82.59
23616;BME280;11985;49.404;7.734;2023-02-28T08:47:45;98104.28;;;-1.88;82.32
23616;BME280;11985;49.404;7.734;2023-02-28T08:52:50;98102.84;;;-1.92;81.68
23616;BME280;11985;49.404;7.734;2023-02-28T08:57:53;98109.59;;;-1.78;81.17
23616;BME280;11985;49.404;7.734;2023-02-28T09:02:55;98101.91;;;-1.54;81.12
23616;BME280;11985;49.404;7.734;2023-02-28T09:07:56;98100.81;;;-1.39;80.16
23616;BME280;11985;49.404;7.734;2023-02-28T09:12:59;98101.00;;;-1.42;79.45
23616;BME280;11985;49.404;7.734;2023-02-28T09:18:01;98097.81;;;-1.21;79.27
23616;BME280;11985;49.404;7.734;2023-02-28T09:23:02;98098.25;;;-0.92;78.57
23616;BME280;11985;49.404;7.734;2023-02-28T09:28:05;98094.97;;;-0.94;77.00
23616;BME280;11985;49.404;7.734;2023-02-28T09:33:07;98101.47;;;-1.13;76.86
23616;BME280;11985;49.404;7.734;2023-02-28T09:38:09;98109.84;;;-1.09;76.97
23616;BME280;11985;49.404;7.734;2023-02-28T09:43:14;98110.19;;;-1.14;76.29
23616;BME280;11985;49.404;7.734;2023-02-28T09:48:20;98108.97;;;-1.21;76.40
23616;BME280;11985;49.404;7.734;2023-02-28T09:53:27;98103.06;;;-0.99;76.31
23616;BME280;11985;49.404;7.734;2023-02-28T09:58:39;98097.84;;;-0.64;76.36
23616;BME280;11985;49.404;7.734;2023-02-28T10:03:47;98088.13;;;-0.15;74.50
23616;BME280;11985;49.404;7.734;2023-02-28T10:08:55;98106.00;;;-0.01;73.67
23616;BME280;11985;49.404;7.734;2023-02-28T10:14:04;98102.56;;;0.21;72.67
23616;BME280;11985;49.404;7.734;2023-02-28T10:19:14;98085.56;;;0.50;71.20
23616;BME280;11985;49.404;7.734;2023-02-28T10:24:20;98087.44;;;0.48;70.10
23616;BME280;11985;49.404;7.734;2023-02-28T10:29:25;98097.97;;;0.36;69.21
23616;BME280;11985;49.404;7.734;2023-02-28T10:34:27;98091.84;;;0.25;68.18
23616;BME280;11985;49.404;7.734;2023-02-28T10:39:40;98089.28;;;0.14;67.91
23616;BME280;11985;49.404;7.734;2023-02-28T10:44:43;98089.94;;;0.39;68.39
23616;BME280;11985;49.404;7.734;2023-02-28T10:49:49;98088.13;;;0.83;67.69
23616;BME280;11985;49.404;7.734;2023-02-28T10:55:14;98076.59;;;1.28;65.98
23616;BME280;11985;49.404;7.734;2023-02-28T11:00:20;98077.94;;;1.23;64.32
23616;BME280;11985;49.404;7.734;2023-02-28T11:05:27;98069.63;;;1.08;64.32
23616;BME280;11985;49.404;7.734;2023-02-28T11:10:31;98069.31;;;1.01;63.85
23616;BME280;11985;49.404;7.734;2023-02-28T11:15:36;98053.50;;;1.04;63.47
23616;BME280;11985;49.404;7.734;2023-02-28T11:20:38;98073.66;;;1.43;63.22
23616;BME280;11985;49.404;7.734;2023-02-28T11:25:47;98065.03;;;1.63;62.43
23616;BME280;11985;49.404;7.734;2023-02-28T11:31:01;98068.84;;;1.59;61.01
23616;BME280;11985;49.404;7.734;2023-02-28T11:36:08;98069.22;;;1.85;60.69
23616;BME280;11985;49.404;7.734;2023-02-28T11:41:22;98058.09;;;2.14;59.54
23616;BME280;11985;49.404;7.734;2023-02-28T11:46:34;98069.41;;;2.72;58.63
23616;BME280;11985;49.404;7.734;2023-02-28T11:51:47;98055.16;;;2.57;56.96
23616;BME280;11985;49.404;7.734;2023-02-28T11:56:52;98058.16;;;2.72;56.67
23616;BME280;11985;49.404;7.734;2023-02-28T12:02:05;98051.03;;;3.12;57.21
23616;BME280;11985;49.404;7.734;2023-02-28T12:07:16;98052.41;;;2.97;55.28
23616;BME280;11985;49.404;7.734;2023-02-28T12:12:38;98044.50;;;2.89;54.56
23616;BME280;11985;49.404;7.734;2023-02-28T12:17:52;98047.63;;;3.02;54.50
23616;BME280;11985;49.404;7.734;2023-02-28T12:23:09;98050.22;;;3.02;53.91
23616;BME280;11985;49.404;7.734;2023-02-28T12:28:14;98047.06;;;2.70;54.13
23616;BME280;11985;49.404;7.734;2023-02-28T12:33:21;98051.88;;;2.64;53.93
23616;BME280;11985;49.404;7.734;2023-02-28T12:38:26;98049.13;;;2.76;54.63
23616;BME280;11985;49.404;7.734;2023-02-28T12:43:32;98055.97;;;2.77;54.00
23616;BME280;11985;49.404;7.734;2023-02-28T12:48:42;98055.56;;;2.72;53.15
23616;BME280;11985;49.404;7.734;2023-02-28T12:53:53;98059.69;;;2.05;53.73
23616;BME280;11985;49.404;7.734;2023-02-28T12:58:58;98054.69;;;1.73;54.41
23616;BME280;11985;49.404;7.734;2023-02-28T13:04:26;98067.19;;;1.58;55.00
23616;BME280;11985;49.404;7.734;2023-02-28T13:09:31;98068.53;;;1.52;55.33
23616;BME280;11985;49.404;7.734;2023-02-28T13:14:36;98049.84;;;1.58;55.79
23616;BME280;11985;49.404;7.734;2023-02-28T13:19:43;98065.19;;;1.41;55.81
23616;BME280;11985;49.404;7.734;2023-02-28T13:24:48;98059.34;;;1.48;56.23
23616;BME280;11985;49.404;7.734;2023-02-28T13:29:52;98047.38;;;1.97;56.85
23616;BME280;11985;49.404;7.734;2023-02-28T13:40:40;98051.31;;;2.42;55.18
23616;BME280;11985;49.404;7.734;2023-02-28T13:46:12;98049.69;;;2.89;55.09
23616;BME280;11985;49.404;7.734;2023-02-28T13:51:38;98045.28;;;2.99;54.40
23616;BME280;11985;49.404;7.734;2023-02-28T13:56:45;98040.91;;;2.80;53.85
23616;BME280;11985;49.404;7.734;2023-02-28T14:02:25;98049.69;;;2.70;54.07
23616;BME280;11985;49.404;7.734;2023-02-28T14:07:32;98050.50;;;2.80;53.95
23616;BME280;11985;49.404;7.734;2023-02-28T14:13:04;98044.88;;;3.04;53.75
23616;BME280;11985;49.404;7.734;2023-02-28T14:18:26;98043.94;;;2.85;53.78
23616;BME280;11985;49.404;7.734;2023-02-28T14:24:04;98047.22;;;2.78;53.72
23616;BME280;11985;49.404;7.734;2023-02-28T14:29:30;98046.13;;;2.90;53.41
23616;BME280;11985;49.404;7.734;2023-02-28T14:34:43;98045.84;;;3.03;53.56
23616;BME280;11985;49.404;7.734;2023-02-28T14:39:47;98046.91;;;3.20;52.99
23616;BME280;11985;49.404;7.734;2023-02-28T14:44:53;98045.81;;;3.12;52.41
23616;BME280;11985;49.404;7.734;2023-02-28T14:49:58;98032.66;;;3.04;52.57
23616;BME280;11985;49.404;7.734;2023-02-28T14:55:03;98037.34;;;3.01;52.58
23616;BME280;11985;49.404;7.734;2023-02-28T15:00:13;98031.13;;;3.31;53.18
23616;BME280;11985;49.404;7.734;2023-02-28T15:05:24;98030.41;;;3.38;52.81
23616;BME280;11985;49.404;7.734;2023-02-28T15:10:27;98026.81;;;3.49;52.15
23616;BME280;11985;49.404;7.734;2023-02-28T15:15:40;98034.91;;;3.56;52.29
23616;BME280;11985;49.404;7.734;2023-02-28T15:20:44;98028.84;;;3.55;52.24
23616;BME280;11985;49.404;7.734;2023-02-28T15:25:46;98037.16;;;3.22;52.15
23616;BME280;11985;49.404;7.734;2023-02-28T15:30:59;98039.81;;;3.02;52.82
23616;BME280;11985;49.404;7.734;2023-02-28T15:36:14;98035.69;;;3.00;52.79
23616;BME280;11985;49.404;7.734;2023-02-28T15:41:25;98043.06;;;3.24;52.67
23616;BME280;11985;49.404;7.734;2023-02-28T15:46:28;98033.06;;;3.19;52.25
23616;BME280;11985;49.404;7.734;2023-02-28T15:51:33;98046.31;;;3.45;52.72
23616;BME280;11985;49.404;7.734;2023-02-28T15:56:38;98037.75;;;3.62;52.20
23616;BME280;11985;49.404;7.734;2023-02-28T16:01:40;98045.53;;;4.45;51.33
23616;BME280;11985;49.404;7.734;2023-02-28T16:06:44;98046.50;;;5.75;49.44
23616;BME280;11985;49.404;7.734;2023-02-28T16:11:48;98053.16;;;6.38;47.41
23616;BME280;11985;49.404;7.734;2023-02-28T16:16:52;98053.69;;;5.73;46.81
23616;BME280;11985;49.404;7.734;2023-02-28T16:21:55;98061.19;;;4.45;47.95
23616;BME280;11985;49.404;7.734;2023-02-28T16:26:57;98063.34;;;3.20;49.78
23616;BME280;11985;49.404;7.734;2023-02-28T16:32:00;98059.78;;;2.44;51.37
23616;BME280;11985;49.404;7.734;2023-02-28T16:37:11;98067.97;;;2.20;52.62
23616;BME280;11985;49.404;7.734;2023-02-28T16:42:16;98072.91;;;2.23;53.36
23616;BME280;11985;49.404;7.734;2023-02-28T16:47:22;98075.06;;;2.18;53.52
23616;BME280;11985;49.404;7.734;2023-02-28T16:52:25;98076.06;;;1.86;54.13
23616;BME280;11985;49.404;7.734;2023-02-28T16:57:26;98093.47;;;1.65;54.39
23616;BME280;11985;49.404;7.734;2023-02-28T17:02:28;98093.09;;;1.48;55.21
23616;BME280;11985;49.404;7.734;2023-02-28T17:07:31;98095.84;;;1.26;55.89
23616;BME280;11985;49.404;7.734;2023-02-28T17:12:32;98106.53;;;1.12;56.06
23616;BME280;11985;49.404;7.734;2023-02-28T17:17:34;98108.91;;;1.03;56.94
23616;BME280;11985;49.404;7.734;2023-02-28T17:22:37;98114.03;;;0.94;57.01
23616;BME280;11985;49.404;7.734;2023-02-28T17:27:39;98122.94;;;0.80;57.92
23616;BME280;11985;49.404;7.734;2023-02-28T17:32:40;98128.84;;;0.71;57.81
23616;BME280;11985;49.404;7.734;2023-02-28T17:37:43;98136.44;;;0.63;58.67
23616;BME280;11985;49.404;7.734;2023-02-28T17:42:45;98132.66;;;0.67;59.06
23616;BME280;11985;49.404;7.734;2023-02-28T17:47:48;98135.22;;;0.78;58.91
23616;BME280;11985;49.404;7.734;2023-02-28T17:52:51;98149.09;;;0.77;59.11
23616;BME280;11985;49.404;7.734;2023-02-28T17:57:53;98144.41;;;0.71;59.17
23616;BME280;11985;49.404;7.734;2023-02-28T18:02:55;98149.75;;;0.58;59.76
23616;BME280;11985;49.404;7.734;2023-02-28T18:07:58;98148.72;;;0.38;60.12
23616;BME280;11985;49.404;7.734;2023-02-28T18:13:00;98144.97;;;0.20;60.51
23616;BME280;11985;49.404;7.734;2023-02-28T18:18:03;98144.28;;;0.07;61.19
23616;BME280;11985;49.404;7.734;2023-02-28T18:23:08;98145.19;;;-0.06;61.77
23616;BME280;11985;49.404;7.734;2023-02-28T18:28:09;98134.41;;;-0.11;61.80
23616;BME280;11985;49.404;7.734;2023-02-28T18:33:11;98139.09;;;-0.16;62.26
23616;BME280;11985;49.404;7.734;2023-02-28T18:38:15;98143.47;;;-0.16;62.89
23616;BME280;11985;49.404;7.734;2023-02-28T18:43:18;98140.16;;;-0.07;62.58
23616;BME280;11985;49.404;7.734;2023-02-28T18:48:20;98137.69;;;0.03;63.04
23616;BME280;11985;49.404;7.734;2023-02-28T18:53:24;98142.84;;;0.03;62.94
23616;BME280;11985;49.404;7.734;2023-02-28T18:58:25;98140.88;;;-0.05;63.04
23616;BME280;11985;49.404;7.734;2023-02-28T19:03:27;98145.91;;;-0.15;62.97
23616;BME280;11985;49.404;7.734;2023-02-28T19:08:30;98142.97;;;-0.21;64.11
23616;BME280;11985;49.404;7.734;2023-02-28T19:13:32;98142.16;;;-0.33;64.13
23616;BME280;11985;49.404;7.734;2023-02-28T19:18:34;98140.94;;;-0.40;64.57
23616;BME280;11985;49.404;7.734;2023-02-28T19:23:38;98145.16;;;-0.50;64.51
23616;BME280;11985;49.404;7.734;2023-02-28T19:28:40;98144.78;;;-0.57;64.62
23616;BME280;11985;49.404;7.734;2023-02-28T19:33:42;98137.72;;;-0.66;65.46
23616;BME280;11985;49.404;7.734;2023-02-28T19:38:45;98137.81;;;-0.68;65.24
23616;BME280;11985;49.404;7.734;2023-02-28T19:43:47;98137.03;;;-0.57;65.79
23616;BME280;11985;49.404;7.734;2023-02-28T19:48:52;98146.81;;;-0.49;66.03
23616;BME280;11985;49.404;7.734;2023-02-28T19:53:55;98148.34;;;-0.47;65.46
23616;BME280;11985;49.404;7.734;2023-02-28T19:58:57;98151.03;;;-0.60;66.04
23616;BME280;11985;49.404;7.734;2023-02-28T20:03:58;98151.69;;;-0.69;66.10
23616;BME280;11985;49.404;7.734;2023-02-28T20:09:02;98152.38;;;-0.78;66.10
23616;BME280;11985;49.404;7.734;2023-02-28T20:14:04;98153.75;;;-0.85;66.63
23616;BME280;11985;49.404;7.734;2023-02-28T20:19:05;98154.59;;;-0.85;66.92
23616;BME280;11985;49.404;7.734;2023-02-28T20:24:08;98149.03;;;-0.91;66.76
23616;BME280;11985;49.404;7.734;2023-02-28T20:29:10;98155.84;;;-0.90;67.15
23616;BME280;11985;49.404;7.734;2023-02-28T20:34:12;98142.09;;;-0.91;67.28
23616;BME280;11985;49.404;7.734;2023-02-28T20:39:15;98134.22;;;-0.89;67.45
23616;BME280;11985;49.404;7.734;2023-02-28T20:44:17;98144.25;;;-0.85;67.78
23616;BME280;11985;49.404;7.734;2023-02-28T20:49:19;98141.00;;;-0.75;68.10
23616;BME280;11985;49.404;7.734;2023-02-28T20:54:21;98141.81;;;-0.75;66.96
23616;BME280;11985;49.404;7.734;2023-02-28T20:59:23;98141.28;;;-0.91;67.46
23616;BME280;11985;49.404;7.734;2023-02-28T21:04:25;98130.19;;;-1.04;68.30
23616;BME280;11985;49.404;7.734;2023-02-28T21:09:28;98124.03;;;-1.15;68.89
23616;BME280;11985;49.404;7.734;2023-02-28T21:14:30;98127.78;;;-1.19;69.19
23616;BME280;11985;49.404;7.734;2023-02-28T21:19:31;98123.06;;;-1.25;68.86
23616;BME280;11985;49.404;7.734;2023-02-28T21:24:34;98125.84;;;-1.28;69.48
23616;BME280;11985;49.404;7.734;2023-02-28T21:29:36;98121.84;;;-1.32;69.54
23616;BME280;11985;49.404;7.734;2023-02-28T21:34:37;98127.47;;;-1.38;69.61
23616;BME280;11985;49.404;7.734;2023-02-28T21:39:40;98132.84;;;-1.41;69.67
23616;BME280;11985;49.404;7.734;2023-02-28T21:44:42;98121.84;;;-1.32;69.85
23616;BME280;11985;49.404;7.734;2023-02-28T21:49:43;98126.56;;;-1.26;69.88
23616;BME280;11985;49.404;7.734;2023-02-28T21:54:46;98124.13;;;-1.27;70.36
23616;BME280;11985;49.404;7.734;2023-02-28T21:59:48;98122.19;;;-1.37;70.47
23616;BME280;11985;49.404;7.734;2023-02-28T22:04:49;98121.31;;;-1.48;70.42
23616;BME280;11985;49.404;7.734;2023-02-28T22:09:52;98117.22;;;-1.64;71.00
23616;BME280;11985;49.404;7.734;2023-02-28T22:14:54;98117.47;;;-1.79;71.34
23616;BME280;11985;49.404;7.734;2023-02-28T22:19:55;98122.25;;;-1.86;71.87
23616;BME280;11985;49.404;7.734;2023-02-28T22:24:58;98115.84;;;-1.93;72.50
23616;BME280;11985;49.404;7.734;2023-02-28T22:29:59;98118.88;;;-1.99;72.50
23616;BME280;11985;49.404;7.734;2023-02-28T22:35:01;98115.56;;;-2.01;73.37
23616;BME280;11985;49.404;7.734;2023-02-28T22:40:05;98108.47;;;-2.10;73.86
23616;BME280;11985;49.404;7.734;2023-02-28T22:45:08;98112.88;;;-2.13;73.93
23616;BME280;11985;49.404;7.734;2023-02-28T22:50:10;98108.25;;;-2.20;74.20
23616;BME280;11985;49.404;7.734;2023-02-28T22:55:13;98114.66;;;-2.26;74.55
23616;BME280;11985;49.404;7.734;2023-02-28T23:00:16;98116.41;;;-2.26;74.59
23616;BME280;11985;49.404;7.734;2023-02-28T23:05:18;98123.75;;;-2.33;75.35
23616;BME280;11985;49.404;7.734;2023-02-28T23:10:21;98123.25;;;-2.38;75.42
23616;BME280;11985;49.404;7.734;2023-02-28T23:15:23;98122.72;;;-2.43;76.08
23616;BME280;11985;49.404;7.734;2023-02-28T23:20:24;98127.88;;;-2.43;76.57
23616;BME280;11985;49.404;7.734;2023-02-28T23:25:27;98126.94;;;-2.42;76.90
23616;BME280;11985;49.404;7.734;2023-02-28T23:30:29;98127.25;;;-2.47;76.88
23616;BME280;11985;49.404;7.734;2023-02-28T23:35:31;98122.69;;;-2.56;77.58
23616;BME280;11985;49.404;7.734;2023-02-28T23:40:34;98127.97;;;-2.57;78.02
23616;BME280;11985;49.404;7.734;2023-02-28T23:45:36;98123.03;;;-2.60;78.09
23616;BME280;11985;49.404;7.734;2023-02-28T23:50:37;98127.44;;;-2.75;78.54
23616;BME280;11985;49.404;7.734;2023-02-28T23:55:45;98126.63;;;-2.76;79.46
